Time;durP1;ratioP1;P1;durP2;ratioP2;P2;SDS_P1;SDS_P2;PMS_P1;PMS_P2;Temp;Humidity;BMP_temperature;BMP_pressure;BME280_temperature;BME280_humidity;BME280_pressure;Samples;Min_cycle;Max_cycle;Signal;HPM_P1;HPM_P2
2022/02/10 00:04:55;;;;;;;13.70;7.80;;;6.70;67.90;;;6.95;55.45;98308.84;4968284;28;20341;-38
2022/02/10 00:08:21;;;;;;;25.87;15.17;;;6.60;68.10;;;6.93;55.76;98308.13;4968604;28;20047;-38
2022/02/10 00:13:19;;;;;;;18.07;10.77;;;6.60;68.00;;;6.88;55.76;98295.28;4968758;28;20073;-38
2022/02/10 00:16:07;;;;;;;12.17;8.00;;;6.50;68.00;;;6.87;55.18;98293.56;4968479;28;20046;-38
2022/02/10 00:21:31;;;;;;;5.30;4.13;;;6.60;67.60;;;6.89;55.40;98293.47;4967592;28;20069;-39
2022/02/10 00:25:26;;;;;;;6.18;4.22;;;6.50;67.30;;;6.86;55.72;98283.97;4968391;28;20065;-38
2022/02/10 00:35:31;;;;;;;3.40;2.70;;;6.60;67.30;;;6.88;55.34;98283.81;4968122;28;20069;-38
2022/02/10 00:37:59;;;;;;;8.07;2.87;;;6.60;67.20;;;6.85;54.97;98282.25;4968662;28;20063;-38
2022/02/10 00:40:33;;;;;;;5.53;3.00;;;6.60;66.70;;;6.86;55.21;98278.66;4967716;28;20062;-38
2022/02/10 00:43:05;;;;;;;4.20;2.60;;;6.60;66.50;;;6.83;55.30;98278.91;4967528;28;20054;-38
2022/02/10 00:45:34;;;;;;;5.73;2.37;;;6.50;66.50;;;6.83;55.42;98280.72;4966765;28;20276;-39
2022/02/10 00:48:07;;;;;;;3.30;2.47;;;6.50;66.30;;;6.81;54.98;98280.00;4968963;28;20051;-38
2022/02/10 00:50:43;;;;;;;5.23;3.30;;;6.50;66.30;;;6.83;54.91;98278.06;4967374;28;20047;-38
2022/02/10 00:53:48;;;;;;;4.50;2.97;;;6.50;66.60;;;6.77;54.45;98271.47;4968362;28;20066;-38
2022/02/10 00:56:09;;;;;;;6.27;3.40;;;6.50;66.20;;;6.74;55.33;98269.03;4964168;28;20069;-38
2022/02/10 00:58:41;;;;;;;4.03;2.77;;;6.40;66.30;;;6.67;55.17;98266.06;4967300;28;20266;-38
2022/02/10 01:07:07;;;;;;;5.47;2.33;;;6.30;66.80;;;6.65;55.31;98257.41;4968264;28;20094;-38
2022/02/10 01:31:30;;;;;;;4.87;2.77;;;6.30;66.60;;;6.58;55.25;98250.91;4967344;28;20051;-38
2022/02/10 01:33:58;;;;;;;5.57;3.20;;;6.30;66.30;;;6.55;54.72;98234.41;4966359;28;20066;-38
2022/02/10 01:36:26;;;;;;;4.37;2.43;;;6.30;66.50;;;6.56;55.08;98238.75;4967603;28;20356;-38
2022/02/10 01:38:54;;;;;;;3.57;2.37;;;6.30;66.10;;;6.55;55.18;98242.34;4967086;28;20249;-38
2022/02/10 02:03:58;;;;;;;6.27;2.57;;;6.50;64.70;;;6.69;53.87;98207.72;4970136;28;20050;-38
2022/02/10 02:06:34;;;;;;;4.33;2.67;;;6.50;64.00;;;6.67;54.15;98207.00;4969549;28;20046;-38
2022/02/10 02:09:04;;;;;;;3.83;2.50;;;6.50;63.70;;;6.68;54.57;98206.84;4954187;28;20046;-38
2022/02/10 02:11:32;;;;;;;3.10;2.50;;;6.50;64.40;;;6.69;54.25;98203.25;4970223;28;20062;-38
2022/02/10 02:14:00;;;;;;;4.80;2.67;;;6.50;64.70;;;6.70;53.67;98198.81;4969492;28;20062;-38
2022/02/10 02:16:29;;;;;;;3.43;2.13;;;6.50;64.50;;;6.70;53.77;98197.00;4970702;28;20058;-38
2022/02/10 02:18:57;;;;;;;4.63;2.40;;;6.60;64.00;;;6.69;53.83;98189.19;4969729;28;20057;-38
2022/02/10 02:21:25;;;;;;;4.77;2.47;;;6.60;64.20;;;6.68;53.78;98187.50;4969974;28;20367;-38
2022/02/10 02:23:53;;;;;;;3.87;2.53;;;6.60;63.50;;;6.67;53.66;98188.47;4937316;28;20568;-37
2022/02/10 02:26:25;;;;;;;3.73;2.30;;;6.50;64.00;;;6.68;54.18;98184.84;4970126;28;20065;-38
2022/02/10 02:28:59;;;;;;;4.40;2.67;;;6.50;64.20;;;6.68;53.30;98182.22;4970332;28;20260;-38
2022/02/10 02:31:35;;;;;;;4.50;2.78;;;6.50;63.50;;;6.63;53.04;98177.31;4970341;28;20047;-37
2022/02/10 02:34:39;;;;;;;3.83;2.33;;;6.50;63.60;;;6.65;53.69;98177.16;4969762;28;20120;-38
2022/02/10 02:37:32;;;;;;;4.30;2.60;;;6.50;64.00;;;6.64;53.34;98171.03;4969276;28;20076;-37
2022/02/10 03:05:23;;;;;;;4.30;2.67;;;6.30;63.30;;;6.39;53.25;98161.56;4948380;29;20059;-37
2022/02/10 03:07:54;;;;;;;5.73;2.47;;;6.30;63.10;;;6.41;53.63;98159.66;4950593;29;20047;-38
2022/02/10 03:13:03;;;;;;;4.50;2.10;;;6.30;62.40;;;6.42;53.09;98157.88;4949606;29;20051;-38
2022/02/10 03:15:40;;;;;;;5.50;2.23;;;6.30;63.10;;;6.42;53.14;98156.06;4949487;29;20063;-38
2022/02/10 03:21:01;;;;;;;6.03;2.40;;;6.30;62.90;;;6.41;53.32;98164.94;4948881;29;20053;-38
2022/02/10 04:11:05;;;;;;;3.80;2.17;;;6.20;62.80;;;6.27;53.72;98168.69;4947699;28;20059;-38
2022/02/10 04:21:22;;;;;;;5.37;2.20;;;6.30;63.40;;;6.35;53.58;98169.88;4948753;29;20077;-38
2022/02/10 04:29:30;;;;;;;2.80;2.10;;;6.40;63.20;;;6.44;53.96;98155.94;4947492;28;20107;-38
2022/02/10 04:32:36;;;;;;;4.97;2.30;;;6.40;63.10;;;6.39;53.67;98151.00;4948399;29;20051;-38
2022/02/10 04:59:42;;;;;;;5.23;2.53;;;6.10;64.70;;;6.28;54.44;98132.50;4947523;29;20058;-38
2022/02/10 05:02:34;;;;;;;4.00;2.20;;;6.10;64.70;;;6.25;54.15;98135.41;4946481;29;20051;-38
2022/02/10 05:16:06;;;;;;;4.07;3.07;;;6.10;64.70;;;6.22;54.00;98136.50;4947894;29;20357;-38
2022/02/10 05:21:05;;;;;;;8.77;4.40;;;5.90;64.50;;;6.21;53.97;98129.50;4947419;28;20055;-38
2022/02/10 05:32:18;;;;;;;7.80;4.37;;;5.70;65.80;;;6.06;54.12;98117.50;4951955;29;20055;-38
2022/02/10 05:34:52;;;;;;;9.00;4.13;;;5.70;65.60;;;6.02;54.48;98114.25;4951029;29;20055;-38
2022/02/10 05:37:24;;;;;;;6.80;3.50;;;5.70;65.60;;;6.01;53.99;98115.22;4935359;29;20078;-38
2022/02/10 05:39:54;;;;;;;6.17;2.50;;;5.80;65.10;;;5.99;54.25;98119.81;4950132;29;20055;-38
2022/02/10 05:42:55;;;;;;;3.90;2.27;;;5.80;64.60;;;6.03;54.14;98109.81;4950763;29;20477;-38
2022/02/10 05:45:33;;;;;;;4.40;2.47;;;5.80;64.60;;;6.03;53.98;98108.03;4949869;29;20055;-38
2022/02/10 06:53:56;;;;;;;4.93;2.57;;;6.60;63.30;;;6.67;54.06;98133.75;4950089;29;20055;-38
2022/02/10 07:10:16;;;;;;;3.57;2.10;;;6.70;64.50;;;6.80;54.12;98140.69;4950312;29;20346;-38
2022/02/10 08:56:37;;;;;;;3.77;2.80;;;8.10;65.80;;;8.04;55.38;98164.69;4948552;28;20352;-39
2022/02/10 09:07:52;;;;;;;5.37;2.80;;;8.40;64.90;;;8.27;54.89;98168.00;4979778;28;20047;-38
2022/02/10 09:13:17;;;;;;;5.93;3.00;;;8.50;64.60;;;8.39;54.57;98175.84;4978638;28;20052;-37
2022/02/10 14:10:29;;;;;;;11.33;6.20;;;7.20;81.90;;;7.09;64.22;98218.56;4962595;28;20069;-35
2022/02/10 14:12:59;;;;;;;12.80;7.00;;;7.20;82.00;;;7.19;64.48;98204.56;4989410;28;20149;-35
2022/02/10 14:15:57;;;;;;;8.93;6.27;;;7.30;81.70;;;7.20;63.78;98203.59;4989904;28;20227;-35
2022/02/10 14:18:26;;;;;;;9.80;6.70;;;7.30;81.20;;;7.18;64.12;98203.72;4989901;28;20084;-35
2022/02/10 14:21:07;;;;;;;9.70;6.43;;;7.20;81.80;;;7.28;64.20;98202.00;4982642;28;20042;-34
2022/02/10 14:28:34;;;;;;;13.07;7.33;;;7.40;81.30;;;7.35;63.81;98226.19;4989301;28;20053;-35
2022/02/10 14:31:04;;;;;;;11.37;7.10;;;7.40;80.50;;;7.40;63.24;98223.13;4988496;28;20265;-35
2022/02/10 14:33:35;;;;;;;12.50;8.10;;;7.30;81.00;;;7.40;63.51;98228.44;4989013;28;20062;-35
2022/02/10 16:17:23;;;;;;;6.40;3.57;;;7.50;72.10;;;7.50;59.42;98181.66;4976860;28;20047;-34
2022/02/10 16:19:53;;;;;;;6.90;3.27;;;7.40;72.30;;;7.55;59.33;98190.06;4977286;28;20053;-34
2022/02/10 16:22:27;;;;;;;9.50;4.13;;;7.50;72.30;;;7.45;57.46;98202.41;4975409;28;20056;-34
2022/02/10 16:25:05;;;;;;;5.33;3.30;;;7.40;69.80;;;7.52;58.39;98195.63;4978100;28;20253;-34
2022/02/10 16:27:35;;;;;;;4.73;3.30;;;7.40;71.30;;;7.57;58.70;98188.13;4977233;28;20134;-34
2022/02/10 16:30:13;;;;;;;4.87;3.23;;;7.50;71.80;;;7.63;58.69;98190.25;4979215;28;20282;-34
2022/02/10 16:32:45;;;;;;;5.07;3.53;;;7.60;71.20;;;7.53;58.99;98177.94;4970469;28;20047;-34
2022/02/10 16:35:18;;;;;;;7.03;3.77;;;7.40;71.30;;;7.54;58.63;98176.94;4973727;28;20061;-34
2022/02/10 16:37:51;;;;;;;5.23;3.80;;;7.40;71.40;;;7.52;58.57;98173.59;4974233;28;20126;-34
2022/02/10 16:40:24;;;;;;;6.45;3.38;;;7.40;71.10;;;7.55;58.37;98168.03;4975973;28;20062;-34
2022/02/10 16:42:57;;;;;;;11.73;4.40;;;7.40;71.60;;;7.51;57.77;98167.47;4976511;28;20042;-34
2022/02/10 16:45:30;;;;;;;10.47;5.33;;;7.40;70.00;;;7.44;58.17;98169.78;4978118;28;20046;-34
2022/02/10 16:48:03;;;;;;;7.77;4.00;;;7.30;71.70;;;7.40;58.32;98168.34;4977058;28;20062;-34
2022/02/10 16:50:38;;;;;;;5.93;4.05;;;7.20;71.00;;;7.37;58.46;98171.28;4977235;28;20065;-34
2022/02/10 16:53:19;;;;;;;6.33;4.07;;;7.20;72.00;;;7.31;58.85;98166.50;4978467;28;20086;-35
2022/02/10 16:56:09;;;;;;;6.60;4.20;;;7.10;72.20;;;7.30;59.14;98170.91;4977095;28;20058;-34
2022/02/10 16:59:12;;;;;;;6.07;4.03;;;7.10;72.60;;;7.29;58.78;98173.72;4978345;28;20059;-35
2022/02/10 17:19:15;;;;;;;6.67;3.63;;;7.10;73.00;;;7.21;59.23;98181.44;4980243;28;20047;-34
2022/02/10 17:27:26;;;;;;;8.07;4.93;;;7.00;73.30;;;7.33;59.36;98195.47;4977017;28;20213;-34
2022/02/10 17:35:49;;;;;;;8.63;4.50;;;7.30;72.60;;;7.49;59.11;98191.41;4963066;28;20047;-35
2022/02/10 17:44:14;;;;;;;9.38;4.80;;;7.40;71.60;;;7.58;58.26;98186.31;4961719;28;20055;-36
2022/02/10 17:52:27;;;;;;;5.67;3.47;;;7.50;70.70;;;7.60;57.67;98179.94;4909101;29;20091;-36
2022/02/10 17:54:55;;;;;;;5.17;3.07;;;7.40;70.30;;;7.62;57.92;98179.81;4954905;29;20061;-35
2022/02/10 17:57:25;;;;;;;4.87;3.17;;;7.50;70.10;;;7.63;57.67;98187.59;4954175;29;20414;-35
2022/02/10 17:59:53;;;;;;;4.93;3.23;;;7.50;68.90;;;7.62;57.43;98179.81;4952867;29;20051;-35
2022/02/10 18:02:21;;;;;;;4.40;3.10;;;7.50;69.40;;;7.60;57.34;98182.59;4960963;28;20076;-35
2022/02/10 18:04:49;;;;;;;5.37;3.07;;;7.50;69.10;;;7.61;57.44;98178.94;4966246;28;20340;-35
2022/02/10 18:07:17;;;;;;;3.97;2.93;;;7.50;68.90;;;7.60;56.73;98177.28;4967989;28;20046;-35
2022/02/10 18:14:57;;;;;;;5.57;2.97;;;7.40;68.40;;;7.55;56.95;98174.19;4970358;28;20061;-35
2022/02/10 18:17:50;;;;;;;3.63;2.87;;;7.40;68.00;;;7.56;56.95;98180.31;4969357;28;20053;-35
2022/02/10 18:20:24;;;;;;;4.80;3.40;;;7.50;68.20;;;7.59;56.82;98178.25;4970376;28;20332;-35
2022/02/10 18:23:02;;;;;;;6.97;4.03;;;7.40;68.20;;;7.62;56.64;98174.50;4968590;28;20072;-35
2022/02/10 18:28:48;;;;;;;4.67;3.00;;;7.40;67.80;;;7.58;56.05;98157.16;4968779;28;20073;-35
2022/02/10 19:09:39;;;;;;;7.80;4.77;;;7.40;66.10;;;7.44;55.42;98163.63;4968102;28;20053;-35
2022/02/10 19:12:16;;;;;;;4.87;3.23;;;7.40;66.00;;;7.43;55.76;98172.56;4966930;28;20356;-35
2022/02/10 19:14:54;;;;;;;5.00;3.10;;;7.30;66.20;;;7.47;55.42;98171.34;4958559;28;20077;-35
2022/02/10 19:17:25;;;;;;;4.83;3.80;;;7.40;66.10;;;7.46;55.72;98157.25;4949921;28;20051;-35
2022/02/10 19:19:54;;;;;;;6.60;3.60;;;7.40;66.30;;;7.46;55.58;98167.84;4968754;28;20373;-35
2022/02/10 19:22:22;;;;;;;4.23;2.80;;;7.30;66.30;;;7.45;55.29;98152.91;4977871;28;20085;-36
2022/02/10 19:24:50;;;;;;;3.60;2.83;;;7.30;66.20;;;7.46;55.46;98149.31;4979645;28;20054;-36
2022/02/10 19:27:19;;;;;;;5.53;2.90;;;7.40;66.30;;;7.48;55.50;98151.81;4979026;28;20057;-36
2022/02/10 19:29:54;;;;;;;3.93;3.47;;;7.30;66.30;;;7.46;55.63;98151.97;4978104;28;20047;-35
2022/02/10 19:32:23;;;;;;;8.10;4.70;;;7.30;66.00;;;7.46;55.47;98154.59;4978990;28;20052;-36
2022/02/10 19:34:53;;;;;;;7.63;4.73;;;7.30;66.20;;;7.45;55.25;98147.63;4979243;28;20098;-36
2022/02/10 19:37:23;;;;;;;7.50;3.90;;;7.30;66.30;;;7.46;55.49;98146.66;4961482;28;20047;-35
2022/02/10 19:39:58;;;;;;;4.90;3.40;;;7.30;66.40;;;7.47;55.89;98147.50;4948978;28;20371;-35
2022/02/10 19:42:34;;;;;;;6.07;3.30;;;7.30;66.30;;;7.48;55.72;98147.38;4949467;29;20055;-35
2022/02/10 19:45:05;;;;;;;4.97;3.40;;;7.30;66.40;;;7.48;55.45;98143.84;4947981;29;20059;-36
2022/02/10 19:47:37;;;;;;;4.43;3.30;;;7.30;66.10;;;7.46;55.10;98144.00;4948741;29;20059;-36
2022/02/10 19:50:13;;;;;;;6.20;3.57;;;7.30;66.10;;;7.44;55.58;98143.31;4948277;29;20653;-35
2022/02/10 19:52:48;;;;;;;8.37;3.83;;;7.30;66.00;;;7.43;55.14;98138.97;4949380;29;20058;-34
2022/02/10 19:55:22;;;;;;;4.57;3.53;;;7.20;66.20;;;7.43;55.25;98135.47;4948669;29;20059;-35
2022/02/10 19:57:56;;;;;;;3.90;3.17;;;7.20;66.10;;;7.43;55.31;98133.66;4948321;29;20058;-35
2022/02/10 20:00:31;;;;;;;6.05;3.92;;;7.20;66.30;;;7.41;55.47;98125.00;4947775;29;20047;-35
2022/02/10 20:03:00;;;;;;;4.60;3.10;;;7.20;66.00;;;7.40;55.64;98123.31;4948048;29;20063;-35
2022/02/10 20:05:28;;;;;;;7.10;5.10;;;7.20;66.10;;;7.36;55.16;98131.66;4948044;29;20364;-35
2022/02/10 20:07:57;;;;;;;7.63;5.03;;;7.20;65.60;;;7.40;55.01;98125.97;4948760;29;20260;-34
2022/02/10 20:10:25;;;;;;;4.00;3.10;;;7.30;66.10;;;7.39;55.47;98120.81;4946972;29;20058;-35
2022/02/10 20:12:54;;;;;;;4.77;3.30;;;7.30;66.10;;;7.40;55.35;98128.59;4949494;29;20051;-35
2022/02/10 20:15:22;;;;;;;6.13;3.23;;;7.20;66.00;;;7.41;55.39;98134.78;4948251;28;20545;-35
2022/02/10 20:17:55;;;;;;;7.20;3.33;;;7.20;66.00;;;7.40;55.58;98133.91;4947529;29;20063;-34
2022/02/10 20:20:23;;;;;;;6.93;4.93;;;7.20;66.50;;;7.44;55.48;98131.84;4946988;29;20063;-34
2022/02/10 20:22:51;;;;;;;6.27;4.40;;;7.20;66.50;;;7.42;55.15;98124.03;4947809;29;20065;-35
2022/02/10 20:25:36;;;;;;;4.80;3.50;;;7.20;66.30;;;7.44;55.58;98119.47;4948290;29;20047;-35
2022/02/10 20:28:07;;;;;;;12.37;6.37;;;7.20;66.40;;;7.42;55.44;98123.19;4948271;29;20059;-35
2022/02/10 20:30:38;;;;;;;9.40;6.70;;;7.10;66.30;;;7.41;55.10;98117.06;4946939;29;20061;-35
2022/02/10 20:33:07;;;;;;;10.17;6.43;;;7.10;66.50;;;7.39;55.40;98116.34;4948720;28;20057;-35
2022/02/10 20:35:43;;;;;;;11.33;6.83;;;7.10;66.90;;;7.37;55.79;98114.81;4948947;29;20051;-35
2022/02/10 20:38:15;;;;;;;14.00;8.97;;;7.00;67.00;;;7.33;55.78;98110.72;4948577;28;20051;-35
2022/02/10 20:40:45;;;;;;;12.33;7.97;;;6.90;67.50;;;7.29;55.85;98107.50;4947599;29;20329;-35
2022/02/10 20:43:13;;;;;;;11.20;7.33;;;6.80;67.70;;;7.23;55.63;98108.00;4950419;29;20057;-35
2022/02/10 20:45:41;;;;;;;8.10;5.93;;;6.80;68.30;;;7.19;56.14;98099.50;4948559;28;20067;-35
2022/02/10 20:48:10;;;;;;;6.73;4.80;;;6.70;68.70;;;7.16;56.00;98101.56;4949695;29;20069;-35
2022/02/10 20:50:38;;;;;;;9.03;5.47;;;6.70;69.10;;;7.15;55.81;98106.00;4948303;29;20082;-35
2022/02/10 20:53:06;;;;;;;8.70;5.70;;;6.70;69.20;;;7.14;56.34;98103.50;4949350;28;20051;-35
2022/02/10 20:55:33;;;;;;;13.23;7.10;;;6.80;69.60;;;7.12;56.61;98103.63;4951608;29;20053;-36
2022/02/10 20:58:01;;;;;;;10.10;7.77;;;6.70;69.80;;;7.13;56.37;98104.44;4952239;29;20051;-36
2022/02/10 21:00:31;;;;;;;10.90;8.17;;;6.70;69.80;;;7.14;56.51;98106.16;4951659;28;20169;-36
2022/02/10 21:02:59;;;;;;;11.60;8.50;;;6.70;70.10;;;7.14;56.67;98100.84;4951069;29;20065;-36
2022/02/10 21:05:36;;;;;;;9.77;6.37;;;6.80;70.10;;;7.15;57.19;98102.50;4952205;28;20059;-36
2022/02/10 21:08:13;;;;;;;5.47;4.57;;;6.80;70.30;;;7.16;57.18;98106.84;4951775;28;20432;-35
2022/02/10 21:10:42;;;;;;;8.80;5.63;;;6.80;70.50;;;7.15;56.95;98103.34;4965031;28;20047;-36
2022/02/10 21:13:12;;;;;;;9.77;5.77;;;6.80;70.60;;;7.15;57.43;98107.81;4951868;29;20061;-36
2022/02/10 21:15:45;;;;;;;12.90;6.40;;;6.70;71.10;;;7.14;57.60;98104.31;4951401;29;20183;-36
2022/02/10 21:18:15;;;;;;;8.30;5.45;;;6.80;71.90;;;7.14;57.38;98104.31;4952709;28;20059;-36
2022/02/10 21:20:44;;;;;;;9.30;5.40;;;6.80;71.40;;;7.13;57.52;98105.28;4950028;28;20059;-36
2022/02/10 21:25:41;;;;;;;7.97;5.57;;;6.70;72.00;;;7.12;57.75;98098.31;4951260;28;20051;-36
2022/02/10 21:28:17;;;;;;;7.30;4.77;;;6.70;72.10;;;7.10;57.97;98098.44;4952425;29;20047;-36
2022/02/10 21:30:48;;;;;;;8.33;4.70;;;6.70;72.10;;;7.10;57.52;98097.63;4952179;29;20359;-36
2022/02/10 21:34:07;;;;;;;5.57;4.47;;;6.70;72.10;;;7.10;58.05;98098.44;4950650;29;20053;-36
2022/02/10 21:47:45;;;;;;;11.80;6.50;;;6.90;72.00;;;7.24;58.38;98091.16;4968186;28;20058;-36
2022/02/10 22:11:35;;;;;;;6.77;4.17;;;6.90;72.80;;;7.22;58.23;98048.91;4951800;28;20390;-36
2022/02/10 22:18:20;;;;;;;8.17;3.60;;;6.90;72.60;;;7.30;58.08;98049.09;4951526;29;20049;-35
2022/02/10 22:19:47;;;;;;;5.40;3.53;;;7.00;72.50;;;7.34;58.65;98046.19;4949532;29;20552;-36
2022/02/10 22:22:23;;;;;;;5.87;3.63;;;7.00;72.40;;;7.36;58.83;98044.25;4950876;28;20059;-36
2022/02/10 22:24:51;;;;;;;5.37;3.63;;;7.10;72.50;;;7.37;58.34;98045.94;4951267;29;20065;-36
2022/02/10 22:27:22;;;;;;;4.70;3.37;;;7.10;72.50;;;7.38;58.63;98040.50;4951389;29;20059;-36
2022/02/10 22:29:54;;;;;;;5.27;3.67;;;7.10;72.50;;;7.40;58.85;98040.38;4950082;28;20438;-36
2022/02/10 22:32:39;;;;;;;4.40;3.37;;;7.10;72.60;;;7.40;58.31;98041.19;4949638;29;20039;-34
2022/02/10 22:35:06;;;;;;;;;;;7.10;72.60;;;7.38;58.87;98042.31;4950416;29;20050;-33
2022/02/10 22:37:34;;;;;;;6.40;3.67;;;7.10;73.00;;;7.44;58.80;98042.63;4951096;29;19933;-34
2022/02/10 22:40:10;;;;;;;5.23;3.07;;;7.10;72.70;;;7.47;58.45;98038.88;4950550;29;20610;-34
2022/02/10 22:42:54;;;;;;;4.70;3.30;;;7.20;72.40;;;7.49;58.67;98039.56;4950343;29;20129;-34
2022/02/10 22:45:21;;;;;;;6.60;3.27;;;7.20;72.10;;;7.53;58.30;98034.84;4950090;29;20055;-34
2022/02/10 22:47:49;;;;;;;5.13;3.40;;;7.30;72.10;;;7.53;58.03;98034.84;4951000;29;20057;-35
2022/02/10 22:50:18;;;;;;;5.20;3.73;;;7.30;71.80;;;7.55;58.78;98038.22;4964106;28;20054;-34
2022/02/10 22:52:46;;;;;;;9.07;3.67;;;7.30;72.00;;;7.55;58.48;98038.22;4951278;29;20222;-34
2022/02/10 22:55:14;;;;;;;5.03;3.67;;;7.30;72.00;;;7.55;58.37;98035.56;4951273;29;20057;-34
2022/02/10 22:57:41;;;;;;;6.67;3.83;;;7.30;72.10;;;7.54;58.64;98032.09;4951180;28;20067;-34
2022/02/10 23:00:33;;;;;;;5.90;2.93;;;7.30;72.30;;;7.58;58.43;98027.34;4950994;29;20051;-34
2022/02/10 23:03:02;;;;;;;6.77;4.30;;;7.30;72.20;;;7.58;58.16;98033.50;4965102;28;20061;-34
2022/02/10 23:05:30;;;;;;;5.87;3.73;;;7.30;72.20;;;7.59;58.40;98024.56;4950752;29;20376;-34
2022/02/10 23:07:59;;;;;;;5.23;3.67;;;7.30;72.10;;;7.60;58.52;98028.91;4951375;28;20067;-34
2022/02/10 23:10:44;;;;;;;6.83;3.73;;;7.40;71.80;;;7.62;58.55;98023.47;4964756;28;20051;-34
2022/02/10 23:13:20;;;;;;;5.83;3.57;;;7.40;71.70;;;7.61;58.30;98032.38;4949605;29;20053;-34
2022/02/10 23:15:50;;;;;;;6.33;3.63;;;7.40;71.80;;;7.58;58.07;98028.19;4948522;28;20058;-34
2022/02/10 23:18:21;;;;;;;6.57;3.83;;;7.30;71.60;;;7.53;58.01;98027.75;4961323;28;20043;-34
2022/02/10 23:20:55;;;;;;;8.10;4.00;;;7.30;71.60;;;7.56;58.13;98034.56;4968120;28;20050;-34
2022/02/10 23:23:25;;;;;;;5.50;3.70;;;7.30;71.80;;;7.56;58.54;98026.63;4969807;28;20374;-34
2022/02/10 23:25:55;;;;;;;5.07;3.50;;;7.30;71.60;;;7.50;58.65;98030.66;4968909;28;20054;-34
2022/02/10 23:28:30;;;;;;;4.77;3.60;;;7.30;71.60;;;7.44;58.29;98037.34;4969709;28;20054;-34
2022/02/10 23:31:00;;;;;;;5.90;3.60;;;7.20;71.80;;;7.41;58.68;98034.09;4969826;28;20336;-34
2022/02/10 23:33:33;;;;;;;5.80;3.83;;;7.10;71.90;;;7.38;58.28;98037.84;4969734;28;20266;-33
2022/02/10 23:39:01;;;;;;;5.00;3.80;;;7.10;72.00;;;7.43;58.48;98038.28;4969504;28;20239;-34
2022/02/10 23:44:13;;;;;;;6.90;4.32;;;7.20;72.00;;;7.42;58.76;98031.31;4969083;28;20039;-34
2022/02/10 23:46:44;;;;;;;5.07;3.57;;;7.20;72.30;;;7.38;58.64;98035.19;4968561;28;20050;-34
2022/02/10 23:49:15;;;;;;;6.30;4.53;;;7.10;72.20;;;7.34;58.57;98036.44;4968379;28;20256;-34
2022/02/10 23:51:50;;;;;;;5.37;4.03;;;7.10;72.50;;;7.35;59.13;98034.59;4966935;28;20213;-34
2022/02/10 23:54:18;;;;;;;7.77;4.33;;;7.10;72.80;;;7.28;58.95;98039.59;4968368;28;20049;-34
2022/02/10 23:56:56;;;;;;;9.23;4.23;;;7.00;73.00;;;7.28;59.05;98035.13;4969149;28;20054;-34
2022/02/10 23:59:39;;;;;;;6.10;3.93;;;7.10;73.20;;;7.18;59.25;98023.66;4969199;28;20046;-34
